^^
TXWeather Station Historical Data
Daily Summary for January 25, 2022 Units:  Both    English   Metric
Daily Weekly Monthly Yearly Custom
  High: Low: Average:
Temperature: 59.0 °F /  15 °C 46.0 °F /  7.8 °C 51.9 °F /  11.1 °C
Dew Point: 52.0 °F /  11.1 °C 43.0 °F /  6.1 °C 47.1 °F /  8.4 °C
Humidity: 92% 74% 84%
Wind Speed: 18mph /  29km/h - 6.3mph /  10.1km/h
Wind Gust: 18mph /  29km/h - -
Wind- - SE
Pressure: 30.3 in /  1026 hPa 29.9 in /  1012.4 hPa -
Precipitation: 0.010 in /  0.25 mm    
Historical Graphs
 
 
Tabular Data for January 25, 2022
Time Temperature Dew Point Pressure Wind Wind Speed Wind Gust Humidity Rainfall Rate (Hourly) solar
00:04 47.0 °F /  8.3 °C 45.0 °F /  7.2 °C 29.9in /  1012.4hPa NNE 5mph /  8km/h 5mph /  8km/h 91% 0.000in /  0mm 0.00 W/m2
00:09 47.0 °F /  8.3 °C 45.0 °F /  7.2 °C 29.9in /  1012.4hPa NNE 4mph /  6.4km/h 4mph /  6.4km/h 91% 0.000in /  0mm 0.00 W/m2
00:14 47.0 °F /  8.3 °C 45.0 °F /  7.2 °C 29.9in /  1012.4hPa NE 4mph /  6.4km/h 5mph /  8km/h 91% 0.000in /  0mm 0.00 W/m2
00:19 47.0 °F /  8.3 °C 45.0 °F /  7.2 °C 29.9in /  1012.4hPa NNE 3mph /  4.8km/h 4mph /  6.4km/h 91% 0.000in /  0mm 0.00 W/m2
00:24 47.0 °F /  8.3 °C 45.0 °F /  7.2 °C 29.9in /  1012.4hPa NNE 4mph /  6.4km/h 4mph /  6.4km/h 91% 0.000in /  0mm 0.00 W/m2
00:29 47.0 °F /  8.3 °C 45.0 °F /  7.2 °C 29.9in /  1012.4hPa NNE 2mph /  3.2km/h 4mph /  6.4km/h 91% 0.000in /  0mm 0.00 W/m2
00:34 47.0 °F /  8.3 °C 45.0 °F /  7.2 °C 29.9in /  1012.4hPa NNE 2mph /  3.2km/h 3mph /  4.8km/h 91% 0.000in /  0mm 0.00 W/m2
00:39 47.0 °F /  8.3 °C 44.0 °F /  6.7 °C 29.9in /  1012.4hPa NNE 3mph /  4.8km/h 3mph /  4.8km/h 91% 0.000in /  0mm 0.00 W/m2
00:44 47.0 °F /  8.3 °C 44.0 °F /  6.7 °C 29.9in /  1012.4hPa NE 2mph /  3.2km/h 2mph /  3.2km/h 91% 0.000in /  0mm 0.00 W/m2
00:49 47.0 °F /  8.3 °C 44.0 °F /  6.7 °C 29.9in /  1012.4hPa NE 2mph /  3.2km/h 3mph /  4.8km/h 91% 0.000in /  0mm 0.00 W/m2
00:54 47.0 °F /  8.3 °C 44.0 °F /  6.7 °C 29.9in /  1012.4hPa NE 2mph /  3.2km/h 2mph /  3.2km/h 91% 0.000in /  0mm 0.00 W/m2
00:59 47.0 °F /  8.3 °C 44.0 °F /  6.7 °C 29.9in /  1012.4hPa NE 2mph /  3.2km/h 2mph /  3.2km/h 91% 0.000in /  0mm 0.00 W/m2
01:04 47.0 °F /  8.3 °C 44.0 °F /  6.7 °C 29.9in /  1012.4hPa NE 2mph /  3.2km/h 2mph /  3.2km/h 91% 0.000in /  0mm 0.00 W/m2
01:09 47.0 °F /  8.3 °C 44.0 °F /  6.7 °C 29.9in /  1012.4hPa NE 1mph /  1.6km/h 2mph /  3.2km/h 91% 0.000in /  0mm 0.00 W/m2
01:14 46.0 °F /  7.8 °C 44.0 °F /  6.7 °C 29.9in /  1012.4hPa Calm     91% 0.000in /  0mm 0.00 W/m2
01:19 46.0 °F /  7.8 °C 44.0 °F /  6.7 °C 29.9in /  1012.4hPa NE 1mph /  1.6km/h 1mph /  1.6km/h 91% 0.000in /  0mm 0.00 W/m2
01:24 46.0 °F /  7.8 °C 44.0 °F /  6.7 °C 29.9in /  1012.4hPa NE 1mph /  1.6km/h 2mph /  3.2km/h 91% 0.000in /  0mm 0.00 W/m2
01:29 46.0 °F /  7.8 °C 44.0 °F /  6.7 °C 29.9in /  1012.4hPa NE 2mph /  3.2km/h 2mph /  3.2km/h 91% 0.000in /  0mm 0.00 W/m2
01:34 46.0 °F /  7.8 °C 44.0 °F /  6.7 °C 29.9in /  1012.4hPa NE 2mph /  3.2km/h 3mph /  4.8km/h 91% 0.010in /  0.25mm 0.00 W/m2
01:39 46.0 °F /  7.8 °C 44.0 °F /  6.7 °C 29.9in /  1012.4hPa NE 2mph /  3.2km/h 2mph /  3.2km/h 91% 0.010in /  0.25mm 0.00 W/m2
01:44 46.0 °F /  7.8 °C 44.0 °F /  6.7 °C 30.0in /  1015.8hPa NE 1mph /  1.6km/h 2mph /  3.2km/h 91% 0.010in /  0.25mm 0.00 W/m2
01:49 47.0 °F /  8.3 °C 44.0 °F /  6.7 °C 29.9in /  1012.4hPa NE 1mph /  1.6km/h 1mph /  1.6km/h 91% 0.010in /  0.25mm 0.00 W/m2
01:54 47.0 °F /  8.3 °C 44.0 °F /  6.7 °C 30.0in /  1015.8hPa Calm     91% 0.010in /  0.25mm 0.00 W/m2
01:59 47.0 °F /  8.3 °C 44.0 °F /  6.7 °C 30.0in /  1015.8hPa NE 3mph /  4.8km/h 3mph /  4.8km/h 91% 0.010in /  0.25mm 0.00 W/m2
02:04 47.0 °F /  8.3 °C 44.0 °F /  6.7 °C 30.0in /  1015.8hPa NW 4mph /  6.4km/h 4mph /  6.4km/h 91% 0.010in /  0.25mm 0.00 W/m2
02:09 47.0 °F /  8.3 °C 44.0 °F /  6.7 °C 30.0in /  1015.8hPa NNW 3mph /  4.8km/h 3mph /  4.8km/h 91% 0.010in /  0.25mm 0.00 W/m2
02:14 47.0 °F /  8.3 °C 44.0 °F /  6.7 °C 30.0in /  1015.8hPa North 3mph /  4.8km/h 3mph /  4.8km/h 91% 0.010in /  0.25mm 0.00 W/m2
02:19 47.0 °F /  8.3 °C 44.0 °F /  6.7 °C 30.0in /  1015.8hPa North 3mph /  4.8km/h 3mph /  4.8km/h 91% 0.010in /  0.25mm 0.00 W/m2
02:24 47.0 °F /  8.3 °C 44.0 °F /  6.7 °C 30.0in /  1015.8hPa North 1mph /  1.6km/h 1mph /  1.6km/h 91% 0.010in /  0.25mm 0.00 W/m2
02:29 47.0 °F /  8.3 °C 44.0 °F /  6.7 °C 30.0in /  1015.8hPa North 2mph /  3.2km/h 2mph /  3.2km/h 91% 0.010in /  0.25mm 0.00 W/m2
02:34 47.0 °F /  8.3 °C 44.0 °F /  6.7 °C 30.0in /  1015.8hPa Calm   1mph /  1.6km/h 91% 0.010in /  0.25mm 0.00 W/m2
02:39 47.0 °F /  8.3 °C 44.0 °F /  6.7 °C 30.0in /  1015.8hPa North 2mph /  3.2km/h 2mph /  3.2km/h 91% 0.000in /  0mm 0.00 W/m2
02:44 47.0 °F /  8.3 °C 44.0 °F /  6.7 °C 30.0in /  1015.8hPa North 3mph /  4.8km/h 3mph /  4.8km/h 91% 0.000in /  0mm 0.00 W/m2
02:49 47.0 °F /  8.3 °C 45.0 °F /  7.2 °C 30.0in /  1015.8hPa North 1mph /  1.6km/h 3mph /  4.8km/h 92% 0.000in /  0mm 0.00 W/m2
02:54 47.0 °F /  8.3 °C 45.0 °F /  7.2 °C 30.0in /  1015.8hPa North 2mph /  3.2km/h 2mph /  3.2km/h 91% 0.000in /  0mm 0.00 W/m2
02:59 47.0 °F /  8.3 °C 45.0 °F /  7.2 °C 30.0in /  1015.8hPa North 2mph /  3.2km/h 2mph /  3.2km/h 91% 0.000in /  0mm 0.00 W/m2
03:04 47.0 °F /  8.3 °C 45.0 °F /  7.2 °C 30.0in /  1015.8hPa North 2mph /  3.2km/h 2mph /  3.2km/h 91% 0.000in /  0mm 0.00 W/m2
03:09 47.0 °F /  8.3 °C 45.0 °F /  7.2 °C 30.0in /  1015.8hPa North 1mph /  1.6km/h 2mph /  3.2km/h 92% 0.000in /  0mm 0.00 W/m2
03:14 47.0 °F /  8.3 °C 45.0 °F /  7.2 °C 30.0in /  1015.8hPa North 2mph /  3.2km/h 2mph /  3.2km/h 92% 0.000in /  0mm 0.00 W/m2
03:19 47.0 °F /  8.3 °C 45.0 °F /  7.2 °C 30.0in /  1015.8hPa NNW 3mph /  4.8km/h 3mph /  4.8km/h 91% 0.000in /  0mm 0.00 W/m2
03:24 47.0 °F /  8.3 °C 45.0 °F /  7.2 °C 30.0in /  1015.8hPa NNW 3mph /  4.8km/h 4mph /  6.4km/h 91% 0.000in /  0mm 0.00 W/m2
03:29 47.0 °F /  8.3 °C 45.0 °F /  7.2 °C 30.0in /  1015.8hPa NW 3mph /  4.8km/h 3mph /  4.8km/h 91% 0.000in /  0mm 0.00 W/m2
03:34 47.0 °F /  8.3 °C 45.0 °F /  7.2 °C 30.0in /  1015.8hPa North 5mph /  8km/h 5mph /  8km/h 91% 0.000in /  0mm 0.00 W/m2
03:39 47.0 °F /  8.3 °C 45.0 °F /  7.2 °C 30.0in /  1015.8hPa NNW 4mph /  6.4km/h 5mph /  8km/h 91% 0.000in /  0mm 0.00 W/m2
03:44 47.0 °F /  8.3 °C 45.0 °F /  7.2 °C 30.0in /  1015.8hPa North 4mph /  6.4km/h 5mph /  8km/h 91% 0.000in /  0mm 0.00 W/m2
03:49 48.0 °F /  8.9 °C 45.0 °F /  7.2 °C 30.0in /  1015.8hPa North 6mph /  9.7km/h 6mph /  9.7km/h 91% 0.000in /  0mm 0.00 W/m2
03:54 48.0 °F /  8.9 °C 45.0 °F /  7.2 °C 30.0in /  1015.8hPa North 6mph /  9.7km/h 6mph /  9.7km/h 91% 0.000in /  0mm 0.00 W/m2
03:59 48.0 °F /  8.9 °C 45.0 °F /  7.2 °C 30.0in /  1015.8hPa North 4mph /  6.4km/h 4mph /  6.4km/h 91% 0.000in /  0mm 0.00 W/m2
04:04 48.0 °F /  8.9 °C 45.0 °F /  7.2 °C 30.0in /  1015.8hPa North 4mph /  6.4km/h 4mph /  6.4km/h 91% 0.000in /  0mm 0.00 W/m2
04:09 48.0 °F /  8.9 °C 45.0 °F /  7.2 °C 30.0in /  1015.8hPa North 5mph /  8km/h 5mph /  8km/h 91% 0.000in /  0mm 0.00 W/m2
04:14 48.0 °F /  8.9 °C 45.0 °F /  7.2 °C 30.0in /  1015.8hPa North 5mph /  8km/h 5mph /  8km/h 92% 0.000in /  0mm 0.00 W/m2
04:19 48.0 °F /  8.9 °C 45.0 °F /  7.2 °C 30.0in /  1015.8hPa NNW 6mph /  9.7km/h 6mph /  9.7km/h 91% 0.000in /  0mm 0.00 W/m2
04:24 48.0 °F /  8.9 °C 45.0 °F /  7.2 °C 30.0in /  1015.8hPa North 5mph /  8km/h 5mph /  8km/h 92% 0.000in /  0mm 0.00 W/m2
04:29 48.0 °F /  8.9 °C 46.0 °F /  7.8 °C 30.0in /  1015.8hPa North 4mph /  6.4km/h 4mph /  6.4km/h 92% 0.000in /  0mm 0.00 W/m2
04:34 48.0 °F /  8.9 °C 46.0 °F /  7.8 °C 30.0in /  1015.8hPa North 5mph /  8km/h 5mph /  8km/h 92% 0.000in /  0mm 0.00 W/m2
04:39 48.0 °F /  8.9 °C 46.0 °F /  7.8 °C 30.0in /  1015.8hPa North 4mph /  6.4km/h 5mph /  8km/h 92% 0.000in /  0mm 0.00 W/m2
04:44 48.0 °F /  8.9 °C 46.0 °F /  7.8 °C 30.0in /  1015.8hPa NNW 5mph /  8km/h 8mph /  12.9km/h 92% 0.000in /  0mm 0.00 W/m2
04:49 48.0 °F /  8.9 °C 46.0 °F /  7.8 °C 30.0in /  1015.8hPa NNW 5mph /  8km/h 5mph /  8km/h 92% 0.000in /  0mm 0.00 W/m2
04:54 48.0 °F /  8.9 °C 46.0 °F /  7.8 °C 30.0in /  1015.8hPa North 4mph /  6.4km/h 4mph /  6.4km/h 92% 0.000in /  0mm 0.00 W/m2
04:59 48.0 °F /  8.9 °C 46.0 °F /  7.8 °C 30.0in /  1015.8hPa North 5mph /  8km/h 5mph /  8km/h 92% 0.000in /  0mm 0.00 W/m2
05:04 48.0 °F /  8.9 °C 46.0 °F /  7.8 °C 30.0in /  1015.8hPa NNE 3mph /  4.8km/h 3mph /  4.8km/h 92% 0.000in /  0mm 0.00 W/m2
05:09 48.0 °F /  8.9 °C 46.0 °F /  7.8 °C 30.0in /  1015.8hPa NNE 1mph /  1.6km/h 2mph /  3.2km/h 92% 0.000in /  0mm 0.00 W/m2
05:14 48.0 °F /  8.9 °C 46.0 °F /  7.8 °C 30.0in /  1015.8hPa North 3mph /  4.8km/h 3mph /  4.8km/h 92% 0.000in /  0mm 0.00 W/m2
05:19 48.0 °F /  8.9 °C 46.0 °F /  7.8 °C 30.0in /  1015.8hPa NNW 3mph /  4.8km/h 3mph /  4.8km/h 92% 0.000in /  0mm 0.00 W/m2
05:24 48.0 °F /  8.9 °C 46.0 °F /  7.8 °C 30.0in /  1015.8hPa NW 2mph /  3.2km/h 2mph /  3.2km/h 92% 0.000in /  0mm 0.00 W/m2
05:29 48.0 °F /  8.9 °C 46.0 °F /  7.8 °C 30.0in /  1015.8hPa NW 3mph /  4.8km/h 3mph /  4.8km/h 92% 0.000in /  0mm 0.00 W/m2
05:34 48.0 °F /  8.9 °C 46.0 °F /  7.8 °C 30.0in /  1015.8hPa NW 3mph /  4.8km/h 4mph /  6.4km/h 92% 0.000in /  0mm 0.00 W/m2
05:39 48.0 °F /  8.9 °C 46.0 °F /  7.8 °C 30.0in /  1015.8hPa NW 3mph /  4.8km/h 3mph /  4.8km/h 92% 0.000in /  0mm 0.00 W/m2
05:44 48.0 °F /  8.9 °C 46.0 °F /  7.8 °C 30.0in /  1015.8hPa NNW 1mph /  1.6km/h 3mph /  4.8km/h 92% 0.000in /  0mm 0.00 W/m2
05:49 48.0 °F /  8.9 °C 46.0 °F /  7.8 °C 30.0in /  1015.8hPa NNW 1mph /  1.6km/h 1mph /  1.6km/h 92% 0.000in /  0mm 0.00 W/m2
05:54 48.0 °F /  8.9 °C 46.0 °F /  7.8 °C 30.0in /  1015.8hPa WSW 2mph /  3.2km/h 2mph /  3.2km/h 92% 0.000in /  0mm 0.00 W/m2
05:59 48.0 °F /  8.9 °C 46.0 °F /  7.8 °C 30.0in /  1015.8hPa WSW 3mph /  4.8km/h 3mph /  4.8km/h 92% 0.000in /  0mm 0.00 W/m2
06:04 48.0 °F /  8.9 °C 46.0 °F /  7.8 °C 30.0in /  1015.8hPa WNW 2mph /  3.2km/h 3mph /  4.8km/h 92% 0.000in /  0mm 0.00 W/m2
06:09 48.0 °F /  8.9 °C 46.0 °F /  7.8 °C 30.0in /  1015.8hPa West 2mph /  3.2km/h 3mph /  4.8km/h 92% 0.000in /  0mm 0.00 W/m2
06:14 48.0 °F /  8.9 °C 46.0 °F /  7.8 °C 30.0in /  1015.8hPa WSW 4mph /  6.4km/h 4mph /  6.4km/h 92% 0.000in /  0mm 0.00 W/m2
06:19 48.0 °F /  8.9 °C 46.0 °F /  7.8 °C 30.0in /  1015.8hPa WSW 3mph /  4.8km/h 4mph /  6.4km/h 92% 0.000in /  0mm 0.00 W/m2
06:24 48.0 °F /  8.9 °C 46.0 °F /  7.8 °C 30.0in /  1015.8hPa WSW 3mph /  4.8km/h 3mph /  4.8km/h 92% 0.000in /  0mm 0.00 W/m2
06:29 48.0 °F /  8.9 °C 46.0 °F /  7.8 °C 30.0in /  1015.8hPa West 2mph /  3.2km/h 3mph /  4.8km/h 92% 0.000in /  0mm 0.00 W/m2
06:34 48.0 °F /  8.9 °C 46.0 °F /  7.8 °C 30.0in /  1015.8hPa NW 3mph /  4.8km/h 3mph /  4.8km/h 91% 0.000in /  0mm 0.00 W/m2
06:39 48.0 °F /  8.9 °C 46.0 °F /  7.8 °C 30.0in /  1015.8hPa WNW 2mph /  3.2km/h 4mph /  6.4km/h 91% 0.000in /  0mm 0.00 W/m2
06:44 48.0 °F /  8.9 °C 46.0 °F /  7.8 °C 30.0in /  1015.8hPa NW 4mph /  6.4km/h 4mph /  6.4km/h 92% 0.000in /  0mm 0.00 W/m2
06:49 48.0 °F /  8.9 °C 46.0 °F /  7.8 °C 30.0in /  1015.8hPa WNW 4mph /  6.4km/h 4mph /  6.4km/h 92% 0.000in /  0mm 0.00 W/m2
06:54 48.0 °F /  8.9 °C 46.0 °F /  7.8 °C 30.0in /  1015.8hPa NW 7mph /  11.3km/h 7mph /  11.3km/h 92% 0.000in /  0mm 0.00 W/m2
06:59 48.0 °F /  8.9 °C 46.0 °F /  7.8 °C 30.0in /  1015.8hPa NW 6mph /  9.7km/h 8mph /  12.9km/h 92% 0.000in /  0mm 0.00 W/m2
07:04 48.0 °F /  8.9 °C 46.0 °F /  7.8 °C 30.0in /  1015.8hPa NW 7mph /  11.3km/h 8mph /  12.9km/h 92% 0.000in /  0mm 0.00 W/m2
07:09 48.0 °F /  8.9 °C 46.0 °F /  7.8 °C 30.0in /  1015.8hPa NW 6mph /  9.7km/h 7mph /  11.3km/h 92% 0.000in /  0mm 0.00 W/m2
07:14 48.0 °F /  8.9 °C 46.0 °F /  7.8 °C 30.0in /  1015.8hPa NW 7mph /  11.3km/h 8mph /  12.9km/h 92% 0.000in /  0mm 0.00 W/m2
07:19 48.0 °F /  8.9 °C 46.0 °F /  7.8 °C 30.0in /  1015.8hPa NW 7mph /  11.3km/h 8mph /  12.9km/h 92% 0.000in /  0mm 0.00 W/m2
07:24 48.0 °F /  8.9 °C 46.0 °F /  7.8 °C 30.0in /  1015.8hPa WNW 9mph /  14.5km/h 10mph /  16.1km/h 92% 0.000in /  0mm 0.00 W/m2
07:29 48.0 °F /  8.9 °C 46.0 °F /  7.8 °C 30.1in /  1019.2hPa WNW 7mph /  11.3km/h 8mph /  12.9km/h 92% 0.000in /  0mm 5.00 W/m2
07:34 48.0 °F /  8.9 °C 46.0 °F /  7.8 °C 30.1in /  1019.2hPa NW 6mph /  9.7km/h 8mph /  12.9km/h 92% 0.000in /  0mm 7.00 W/m2
07:39 48.0 °F /  8.9 °C 46.0 °F /  7.8 °C 30.1in /  1019.2hPa NW 6mph /  9.7km/h 8mph /  12.9km/h 92% 0.000in /  0mm 9.00 W/m2
07:44 48.0 °F /  8.9 °C 46.0 °F /  7.8 °C 30.1in /  1019.2hPa WNW 4mph /  6.4km/h 5mph /  8km/h 92% 0.000in /  0mm 16.00 W/m2
07:49 48.0 °F /  8.9 °C 46.0 °F /  7.8 °C 30.1in /  1019.2hPa NW 5mph /  8km/h 6mph /  9.7km/h 92% 0.000in /  0mm 21.00 W/m2
07:54 48.0 °F /  8.9 °C 46.0 °F /  7.8 °C 30.1in /  1019.2hPa NW 5mph /  8km/h 6mph /  9.7km/h 92% 0.000in /  0mm 35.00 W/m2
07:59 48.0 °F /  8.9 °C 46.0 °F /  7.8 °C 30.1in /  1019.2hPa NW 5mph /  8km/h 7mph /  11.3km/h 92% 0.000in /  0mm 44.00 W/m2
08:04 48.0 °F /  8.9 °C 46.0 °F /  7.8 °C 30.1in /  1019.2hPa NW 5mph /  8km/h 6mph /  9.7km/h 92% 0.000in /  0mm 47.00 W/m2
08:09 48.0 °F /  8.9 °C 46.0 °F /  7.8 °C 30.1in /  1019.2hPa NW 7mph /  11.3km/h 9mph /  14.5km/h 92% 0.000in /  0mm 63.00 W/m2
08:14 49.0 °F /  9.4 °C 46.0 °F /  7.8 °C 30.1in /  1019.2hPa NW 7mph /  11.3km/h 10mph /  16.1km/h 92% 0.000in /  0mm 63.00 W/m2
08:19 49.0 °F /  9.4 °C 46.0 °F /  7.8 °C 30.1in /  1019.2hPa NNW 7mph /  11.3km/h 7mph /  11.3km/h 92% 0.000in /  0mm 74.00 W/m2
08:24 49.0 °F /  9.4 °C 47.0 °F /  8.3 °C 30.1in /  1019.2hPa NW 6mph /  9.7km/h 9mph /  14.5km/h 92% 0.000in /  0mm 90.00 W/m2
08:29 49.0 °F /  9.4 °C 47.0 °F /  8.3 °C 30.1in /  1019.2hPa NNW 8mph /  12.9km/h 8mph /  12.9km/h 92% 0.000in /  0mm 120.00 W/m2
08:34 49.0 °F /  9.4 °C 47.0 °F /  8.3 °C 30.1in /  1019.2hPa NNW 5mph /  8km/h 8mph /  12.9km/h 92% 0.000in /  0mm 144.00 W/m2
08:39 50.0 °F /  10 °C 47.0 °F /  8.3 °C 30.1in /  1019.2hPa NW 8mph /  12.9km/h 8mph /  12.9km/h 92% 0.000in /  0mm 107.00 W/m2
08:44 50.0 °F /  10 °C 48.0 °F /  8.9 °C 30.1in /  1019.2hPa NW 8mph /  12.9km/h 8mph /  12.9km/h 92% 0.000in /  0mm 109.00 W/m2
08:49 50.0 °F /  10 °C 48.0 °F /  8.9 °C 30.1in /  1019.2hPa NNW 9mph /  14.5km/h 9mph /  14.5km/h 92% 0.000in /  0mm 86.00 W/m2
08:54 50.0 °F /  10 °C 48.0 °F /  8.9 °C 30.1in /  1019.2hPa NW 7mph /  11.3km/h 7mph /  11.3km/h 92% 0.000in /  0mm 88.00 W/m2
08:59 50.0 °F /  10 °C 48.0 °F /  8.9 °C 30.1in /  1019.2hPa NNW 9mph /  14.5km/h 10mph /  16.1km/h 92% 0.000in /  0mm 98.00 W/m2
09:04 50.0 °F /  10 °C 48.0 °F /  8.9 °C 30.1in /  1019.2hPa NNW 7mph /  11.3km/h 10mph /  16.1km/h 92% 0.000in /  0mm 123.00 W/m2
09:09 50.0 °F /  10 °C 48.0 °F /  8.9 °C 30.1in /  1019.2hPa NNW 8mph /  12.9km/h 8mph /  12.9km/h 92% 0.000in /  0mm 109.00 W/m2
09:14 51.0 °F /  10.6 °C 48.0 °F /  8.9 °C 30.1in /  1019.2hPa North 8mph /  12.9km/h 10mph /  16.1km/h 92% 0.000in /  0mm 134.00 W/m2
09:19 51.0 °F /  10.6 °C 49.0 °F /  9.4 °C 30.1in /  1019.2hPa North 5mph /  8km/h 9mph /  14.5km/h 92% 0.000in /  0mm 436.00 W/m2
09:24 51.0 °F /  10.6 °C 49.0 °F /  9.4 °C 30.1in /  1019.2hPa North 6mph /  9.7km/h 9mph /  14.5km/h 92% 0.000in /  0mm 253.00 W/m2
09:29 52.0 °F /  11.1 °C 50.0 °F /  10 °C 30.1in /  1019.2hPa North 10mph /  16.1km/h 10mph /  16.1km/h 92% 0.000in /  0mm 355.00 W/m2
09:34 52.0 °F /  11.1 °C 50.0 °F /  10 °C 30.1in /  1019.2hPa NNW 10mph /  16.1km/h 12mph /  19.3km/h 92% 0.000in /  0mm 448.00 W/m2
09:39 52.0 °F /  11.1 °C 50.0 °F /  10 °C 30.1in /  1019.2hPa North 13mph /  20.9km/h 16mph /  25.7km/h 92% 0.000in /  0mm 193.00 W/m2
09:44 53.0 °F /  11.7 °C 50.0 °F /  10 °C 30.1in /  1019.2hPa North 13mph /  20.9km/h 16mph /  25.7km/h 92% 0.000in /  0mm 200.00 W/m2
09:49 53.0 °F /  11.7 °C 50.0 °F /  10 °C 30.1in /  1019.2hPa NNE 13mph /  20.9km/h 13mph /  20.9km/h 92% 0.000in /  0mm 188.00 W/m2
09:54 53.0 °F /  11.7 °C 51.0 °F /  10.6 °C 30.1in /  1019.2hPa North 11mph /  17.7km/h 11mph /  17.7km/h 92% 0.000in /  0mm 213.00 W/m2
09:59 53.0 °F /  11.7 °C 51.0 °F /  10.6 °C 30.1in /  1019.2hPa North 14mph /  22.5km/h 15mph /  24.1km/h 91% 0.000in /  0mm 260.00 W/m2
10:04 53.0 °F /  11.7 °C 51.0 °F /  10.6 °C 30.1in /  1019.2hPa North 11mph /  17.7km/h 11mph /  17.7km/h 91% 0.000in /  0mm 292.00 W/m2
10:09 54.0 °F /  12.2 °C 51.0 °F /  10.6 °C 30.1in /  1019.2hPa NNE 15mph /  24.1km/h 15mph /  24.1km/h 91% 0.000in /  0mm 315.00 W/m2
10:14 54.0 °F /  12.2 °C 51.0 °F /  10.6 °C 30.1in /  1019.2hPa North 16mph /  25.7km/h 16mph /  25.7km/h 90% 0.000in /  0mm 302.00 W/m2
10:19 55.0 °F /  12.8 °C 52.0 °F /  11.1 °C 30.1in /  1019.2hPa North 12mph /  19.3km/h 12mph /  19.3km/h 90% 0.000in /  0mm 281.00 W/m2
10:24 55.0 °F /  12.8 °C 52.0 °F /  11.1 °C 30.1in /  1019.2hPa North 12mph /  19.3km/h 13mph /  20.9km/h 89% 0.000in /  0mm 264.00 W/m2
10:29 55.0 °F /  12.8 °C 52.0 °F /  11.1 °C 30.1in /  1019.2hPa NNE 18mph /  29km/h 18mph /  29km/h 88% 0.000in /  0mm 251.00 W/m2
10:34 55.0 °F /  12.8 °C 51.0 °F /  10.6 °C 30.1in /  1019.2hPa NNE 8mph /  12.9km/h 13mph /  20.9km/h 87% 0.000in /  0mm 279.00 W/m2
10:39 56.0 °F /  13.3 °C 52.0 °F /  11.1 °C 30.1in /  1019.2hPa North 12mph /  19.3km/h 14mph /  22.5km/h 87% 0.000in /  0mm 304.00 W/m2
10:44 56.0 °F /  13.3 °C 51.0 °F /  10.6 °C 30.1in /  1019.2hPa NNE 12mph /  19.3km/h 14mph /  22.5km/h 85% 0.000in /  0mm 223.00 W/m2
10:49 56.0 °F /  13.3 °C 51.0 °F /  10.6 °C 30.1in /  1019.2hPa NNE 15mph /  24.1km/h 15mph /  24.1km/h 85% 0.000in /  0mm 216.00 W/m2
10:54 56.0 °F /  13.3 °C 51.0 °F /  10.6 °C 30.1in /  1019.2hPa NNE 12mph /  19.3km/h 13mph /  20.9km/h 84% 0.000in /  0mm 225.00 W/m2
10:59 56.0 °F /  13.3 °C 51.0 °F /  10.6 °C 30.1in /  1019.2hPa NNE 13mph /  20.9km/h 13mph /  20.9km/h 83% 0.000in /  0mm 304.00 W/m2
11:04 56.0 °F /  13.3 °C 51.0 °F /  10.6 °C 30.1in /  1019.2hPa NNE 12mph /  19.3km/h 13mph /  20.9km/h 83% 0.000in /  0mm 348.00 W/m2
11:09 56.0 °F /  13.3 °C 51.0 °F /  10.6 °C 30.1in /  1019.2hPa NNE 12mph /  19.3km/h 12mph /  19.3km/h 82% 0.000in /  0mm 397.00 W/m2
11:14 56.0 °F /  13.3 °C 50.0 °F /  10 °C 30.1in /  1019.2hPa NNE 11mph /  17.7km/h 11mph /  17.7km/h 81% 0.000in /  0mm 397.00 W/m2
11:19 57.0 °F /  13.9 °C 51.0 °F /  10.6 °C 30.1in /  1019.2hPa NNE 12mph /  19.3km/h 12mph /  19.3km/h 81% 0.000in /  0mm 930.00 W/m2
11:24 57.0 °F /  13.9 °C 51.0 °F /  10.6 °C 30.1in /  1019.2hPa NNE 11mph /  17.7km/h 12mph /  19.3km/h 80% 0.000in /  0mm 448.00 W/m2
11:29 57.0 °F /  13.9 °C 51.0 °F /  10.6 °C 30.1in /  1019.2hPa NNE 10mph /  16.1km/h 12mph /  19.3km/h 78% 0.000in /  0mm 206.00 W/m2
11:34 57.0 °F /  13.9 °C 50.0 °F /  10 °C 30.1in /  1019.2hPa NNE 11mph /  17.7km/h 18mph /  29km/h 77% 0.000in /  0mm 200.00 W/m2
11:39 57.0 °F /  13.9 °C 50.0 °F /  10 °C 30.1in /  1019.2hPa NNE 9mph /  14.5km/h 11mph /  17.7km/h 77% 0.000in /  0mm 357.00 W/m2
11:44 57.0 °F /  13.9 °C 50.0 °F /  10 °C 30.1in /  1019.2hPa NNE 10mph /  16.1km/h 10mph /  16.1km/h 78% 0.000in /  0mm 861.00 W/m2
11:49 59.0 °F /  15 °C 52.0 °F /  11.1 °C 30.1in /  1019.2hPa NNE 9mph /  14.5km/h 9mph /  14.5km/h 79% 0.000in /  0mm 766.00 W/m2
11:54 59.0 °F /  15 °C 52.0 °F /  11.1 °C 30.1in /  1019.2hPa NE 10mph /  16.1km/h 10mph /  16.1km/h 78% 0.000in /  0mm 659.00 W/m2
11:59 59.0 °F /  15 °C 51.0 °F /  10.6 °C 30.1in /  1019.2hPa NNE 12mph /  19.3km/h 12mph /  19.3km/h 75% 0.000in /  0mm 204.00 W/m2
12:04 58.0 °F /  14.4 °C 50.0 °F /  10 °C 30.1in /  1019.2hPa NNE 10mph /  16.1km/h 12mph /  19.3km/h 74% 0.000in /  0mm 134.00 W/m2
12:09 58.0 °F /  14.4 °C 49.0 °F /  9.4 °C 30.1in /  1019.2hPa NE 9mph /  14.5km/h 11mph /  17.7km/h 75% 0.000in /  0mm 169.00 W/m2
12:14 57.0 °F /  13.9 °C 49.0 °F /  9.4 °C 30.1in /  1019.2hPa NE 8mph /  12.9km/h 12mph /  19.3km/h 76% 0.000in /  0mm 169.00 W/m2
12:19 57.0 °F /  13.9 °C 49.0 °F /  9.4 °C 30.1in /  1019.2hPa NE 10mph /  16.1km/h 10mph /  16.1km/h 76% 0.000in /  0mm 197.00 W/m2
12:24 57.0 °F /  13.9 °C 49.0 °F /  9.4 °C 30.1in /  1019.2hPa NNE 8mph /  12.9km/h 11mph /  17.7km/h 76% 0.000in /  0mm 341.00 W/m2
12:29 57.0 °F /  13.9 °C 49.0 °F /  9.4 °C 30.1in /  1019.2hPa NE 7mph /  11.3km/h 11mph /  17.7km/h 76% 0.000in /  0mm 359.00 W/m2
12:34 57.0 °F /  13.9 °C 50.0 °F /  10 °C 30.1in /  1019.2hPa NE 11mph /  17.7km/h 11mph /  17.7km/h 76% 0.000in /  0mm 341.00 W/m2
12:39 57.0 °F /  13.9 °C 50.0 °F /  10 °C 30.1in /  1019.2hPa NNE 13mph /  20.9km/h 13mph /  20.9km/h 76% 0.000in /  0mm 236.00 W/m2
12:44 57.0 °F /  13.9 °C 49.0 °F /  9.4 °C 30.1in /  1019.2hPa NNE 12mph /  19.3km/h 12mph /  19.3km/h 75% 0.000in /  0mm 211.00 W/m2
12:49 57.0 °F /  13.9 °C 49.0 °F /  9.4 °C 30.1in /  1019.2hPa NNE 11mph /  17.7km/h 12mph /  19.3km/h 75% 0.000in /  0mm 158.00 W/m2
12:54 57.0 °F /  13.9 °C 49.0 °F /  9.4 °C 30.1in /  1019.2hPa North 10mph /  16.1km/h 11mph /  17.7km/h 75% 0.000in /  0mm 130.00 W/m2
12:59 57.0 °F /  13.9 °C 49.0 °F /  9.4 °C 30.1in /  1019.2hPa NNE 7mph /  11.3km/h 9mph /  14.5km/h 76% 0.000in /  0mm 156.00 W/m2
13:04 57.0 °F /  13.9 °C 49.0 °F /  9.4 °C 30.1in /  1019.2hPa NNE 14mph /  22.5km/h 14mph /  22.5km/h 76% 0.000in /  0mm 158.00 W/m2
13:09 57.0 °F /  13.9 °C 49.0 °F /  9.4 °C 30.1in /  1019.2hPa NNE 10mph /  16.1km/h 14mph /  22.5km/h 76% 0.000in /  0mm 162.00 W/m2
13:14 57.0 °F /  13.9 °C 49.0 °F /  9.4 °C 30.1in /  1019.2hPa NNE 10mph /  16.1km/h 10mph /  16.1km/h 76% 0.000in /  0mm 169.00 W/m2
13:19 56.0 °F /  13.3 °C 49.0 °F /  9.4 °C 30.1in /  1019.2hPa NNE 7mph /  11.3km/h 11mph /  17.7km/h 77% 0.000in /  0mm 169.00 W/m2
13:24 57.0 °F /  13.9 °C 49.0 °F /  9.4 °C 30.1in /  1019.2hPa NE 5mph /  8km/h 6mph /  9.7km/h 77% 0.000in /  0mm 153.00 W/m2
13:29 57.0 °F /  13.9 °C 49.0 °F /  9.4 °C 30.1in /  1019.2hPa NE 6mph /  9.7km/h 8mph /  12.9km/h 77% 0.000in /  0mm 260.00 W/m2
13:34 57.0 °F /  13.9 °C 49.0 °F /  9.4 °C 30.1in /  1019.2hPa NNE 11mph /  17.7km/h 12mph /  19.3km/h 76% 0.000in /  0mm 260.00 W/m2
13:39 57.0 °F /  13.9 °C 49.0 °F /  9.4 °C 30.1in /  1019.2hPa NNE 10mph /  16.1km/h 12mph /  19.3km/h 76% 0.000in /  0mm 165.00 W/m2
13:44 57.0 °F /  13.9 °C 49.0 °F /  9.4 °C 30.1in /  1019.2hPa NNE 9mph /  14.5km/h 11mph /  17.7km/h 76% 0.000in /  0mm 146.00 W/m2
13:49 57.0 °F /  13.9 °C 49.0 °F /  9.4 °C 30.1in /  1019.2hPa NNE 10mph /  16.1km/h 11mph /  17.7km/h 77% 0.000in /  0mm 188.00 W/m2
13:54 57.0 °F /  13.9 °C 50.0 °F /  10 °C 30.1in /  1019.2hPa NNE 5mph /  8km/h 11mph /  17.7km/h 77% 0.000in /  0mm 204.00 W/m2
13:59 57.0 °F /  13.9 °C 50.0 °F /  10 °C 30.1in /  1019.2hPa NNE 11mph /  17.7km/h 11mph /  17.7km/h 77% 0.000in /  0mm 207.00 W/m2
14:04 57.0 °F /  13.9 °C 49.0 °F /  9.4 °C 30.1in /  1019.2hPa North 9mph /  14.5km/h 10mph /  16.1km/h 76% 0.000in /  0mm 241.00 W/m2
14:09 57.0 °F /  13.9 °C 49.0 °F /  9.4 °C 30.1in /  1019.2hPa NNE 7mph /  11.3km/h 10mph /  16.1km/h 76% 0.000in /  0mm 230.00 W/m2
14:14 57.0 °F /  13.9 °C 49.0 °F /  9.4 °C 30.1in /  1019.2hPa NNE 9mph /  14.5km/h 9mph /  14.5km/h 76% 0.000in /  0mm 195.00 W/m2
14:19 57.0 °F /  13.9 °C 49.0 °F /  9.4 °C 30.1in /  1019.2hPa North 10mph /  16.1km/h 10mph /  16.1km/h 76% 0.000in /  0mm 207.00 W/m2
14:24 57.0 °F /  13.9 °C 50.0 °F /  10 °C 30.1in /  1019.2hPa North 10mph /  16.1km/h 10mph /  16.1km/h 76% 0.000in /  0mm 206.00 W/m2
14:29 57.0 °F /  13.9 °C 50.0 °F /  10 °C 30.1in /  1019.2hPa NNE 9mph /  14.5km/h 10mph /  16.1km/h 76% 0.000in /  0mm 209.00 W/m2
14:34 57.0 °F /  13.9 °C 50.0 °F /  10 °C 30.1in /  1019.2hPa North 9mph /  14.5km/h 9mph /  14.5km/h 76% 0.000in /  0mm 234.00 W/m2
14:39 57.0 °F /  13.9 °C 50.0 °F /  10 °C 30.1in /  1019.2hPa North 10mph /  16.1km/h 10mph /  16.1km/h 76% 0.000in /  0mm 285.00 W/m2
14:44 57.0 °F /  13.9 °C 50.0 °F /  10 °C 30.1in /  1019.2hPa NNE 8mph /  12.9km/h 9mph /  14.5km/h 76% 0.000in /  0mm 248.00 W/m2
14:49 57.0 °F /  13.9 °C 50.0 °F /  10 °C 30.1in /  1019.2hPa North 10mph /  16.1km/h 10mph /  16.1km/h 76% 0.000in /  0mm 181.00 W/m2
14:54 57.0 °F /  13.9 °C 50.0 °F /  10 °C 30.1in /  1019.2hPa North 10mph /  16.1km/h 10mph /  16.1km/h 75% 0.000in /  0mm 158.00 W/m2
14:59 57.0 °F /  13.9 °C 50.0 °F /  10 °C 30.1in /  1019.2hPa North 8mph /  12.9km/h 9mph /  14.5km/h 75% 0.000in /  0mm 141.00 W/m2
15:04 57.0 °F /  13.9 °C 49.0 °F /  9.4 °C 30.1in /  1019.2hPa NNE 9mph /  14.5km/h 10mph /  16.1km/h 75% 0.000in /  0mm 158.00 W/m2
15:09 57.0 °F /  13.9 °C 49.0 °F /  9.4 °C 30.1in /  1019.2hPa North 8mph /  12.9km/h 8mph /  12.9km/h 75% 0.000in /  0mm 135.00 W/m2
15:14 57.0 °F /  13.9 °C 49.0 °F /  9.4 °C 30.1in /  1019.2hPa North 9mph /  14.5km/h 9mph /  14.5km/h 75% 0.000in /  0mm 137.00 W/m2
15:19 57.0 °F /  13.9 °C 49.0 °F /  9.4 °C 30.1in /  1019.2hPa North 9mph /  14.5km/h 9mph /  14.5km/h 75% 0.000in /  0mm 142.00 W/m2
15:24 57.0 °F /  13.9 °C 49.0 °F /  9.4 °C 30.1in /  1019.2hPa North 7mph /  11.3km/h 9mph /  14.5km/h 75% 0.000in /  0mm 125.00 W/m2
15:29 57.0 °F /  13.9 °C 49.0 °F /  9.4 °C 30.1in /  1019.2hPa NNE 7mph /  11.3km/h 8mph /  12.9km/h 75% 0.000in /  0mm 109.00 W/m2
15:34 57.0 °F /  13.9 °C 49.0 °F /  9.4 °C 30.1in /  1019.2hPa North 9mph /  14.5km/h 9mph /  14.5km/h 75% 0.000in /  0mm 113.00 W/m2
15:39 57.0 °F /  13.9 °C 49.0 °F /  9.4 °C 30.1in /  1019.2hPa North 8mph /  12.9km/h 8mph /  12.9km/h 75% 0.000in /  0mm 132.00 W/m2
15:44 57.0 °F /  13.9 °C 49.0 °F /  9.4 °C 30.1in /  1019.2hPa North 9mph /  14.5km/h 9mph /  14.5km/h 75% 0.000in /  0mm 132.00 W/m2
15:49 57.0 °F /  13.9 °C 49.0 °F /  9.4 °C 30.1in /  1019.2hPa North 8mph /  12.9km/h 8mph /  12.9km/h 75% 0.000in /  0mm 107.00 W/m2
15:54 57.0 °F /  13.9 °C 49.0 °F /  9.4 °C 30.1in /  1019.2hPa NNE 6mph /  9.7km/h 8mph /  12.9km/h 75% 0.000in /  0mm 107.00 W/m2
15:59 57.0 °F /  13.9 °C 49.0 °F /  9.4 °C 30.1in /  1019.2hPa NNE 8mph /  12.9km/h 9mph /  14.5km/h 75% 0.000in /  0mm 107.00 W/m2
16:04 57.0 °F /  13.9 °C 49.0 °F /  9.4 °C 30.1in /  1019.2hPa North 5mph /  8km/h 9mph /  14.5km/h 75% 0.000in /  0mm 100.00 W/m2
16:09 57.0 °F /  13.9 °C 49.0 °F /  9.4 °C 30.1in /  1019.2hPa North 5mph /  8km/h 7mph /  11.3km/h 75% 0.000in /  0mm 95.00 W/m2
16:14 57.0 °F /  13.9 °C 49.0 °F /  9.4 °C 30.1in /  1019.2hPa NNW 8mph /  12.9km/h 8mph /  12.9km/h 75% 0.000in /  0mm 91.00 W/m2
16:19 57.0 °F /  13.9 °C 49.0 °F /  9.4 °C 30.1in /  1019.2hPa North 5mph /  8km/h 8mph /  12.9km/h 75% 0.000in /  0mm 67.00 W/m2
16:24 57.0 °F /  13.9 °C 49.0 °F /  9.4 °C 30.1in /  1019.2hPa North 8mph /  12.9km/h 9mph /  14.5km/h 75% 0.000in /  0mm 69.00 W/m2
16:29 57.0 °F /  13.9 °C 49.0 °F /  9.4 °C 30.1in /  1019.2hPa North 8mph /  12.9km/h 9mph /  14.5km/h 75% 0.000in /  0mm 65.00 W/m2
16:34 57.0 °F /  13.9 °C 49.0 °F /  9.4 °C 30.1in /  1019.2hPa North 8mph /  12.9km/h 9mph /  14.5km/h 76% 0.000in /  0mm 65.00 W/m2
16:39 57.0 °F /  13.9 °C 49.0 °F /  9.4 °C 30.1in /  1019.2hPa North 10mph /  16.1km/h 11mph /  17.7km/h 76% 0.000in /  0mm 53.00 W/m2
16:44 56.0 °F /  13.3 °C 49.0 °F /  9.4 °C 30.1in /  1019.2hPa North 10mph /  16.1km/h 10mph /  16.1km/h 76% 0.000in /  0mm 49.00 W/m2
16:49 56.0 °F /  13.3 °C 49.0 °F /  9.4 °C 30.1in /  1019.2hPa North 7mph /  11.3km/h 9mph /  14.5km/h 76% 0.000in /  0mm 39.00 W/m2
16:54 56.0 °F /  13.3 °C 49.0 °F /  9.4 °C 30.1in /  1019.2hPa North 8mph /  12.9km/h 9mph /  14.5km/h 76% 0.000in /  0mm 35.00 W/m2
16:59 56.0 °F /  13.3 °C 49.0 °F /  9.4 °C 30.1in /  1019.2hPa North 8mph /  12.9km/h 9mph /  14.5km/h 76% 0.000in /  0mm 33.00 W/m2
17:04 56.0 °F /  13.3 °C 48.0 °F /  8.9 °C 30.1in /  1019.2hPa NNE 8mph /  12.9km/h 10mph /  16.1km/h 76% 0.000in /  0mm 30.00 W/m2
17:09 56.0 °F /  13.3 °C 49.0 °F /  9.4 °C 30.1in /  1019.2hPa North 11mph /  17.7km/h 11mph /  17.7km/h 77% 0.000in /  0mm 23.00 W/m2
17:14 56.0 °F /  13.3 °C 49.0 °F /  9.4 °C 30.1in /  1019.2hPa North 8mph /  12.9km/h 11mph /  17.7km/h 77% 0.000in /  0mm 21.00 W/m2
17:19 56.0 °F /  13.3 °C 49.0 °F /  9.4 °C 30.1in /  1019.2hPa NNE 10mph /  16.1km/h 10mph /  16.1km/h 77% 0.000in /  0mm 18.00 W/m2
17:24 55.0 °F /  12.8 °C 48.0 °F /  8.9 °C 30.1in /  1019.2hPa North 8mph /  12.9km/h 10mph /  16.1km/h 77% 0.000in /  0mm 14.00 W/m2
17:29 55.0 °F /  12.8 °C 48.0 °F /  8.9 °C 30.1in /  1019.2hPa NNE 8mph /  12.9km/h 9mph /  14.5km/h 77% 0.000in /  0mm 11.00 W/m2
17:34 55.0 °F /  12.8 °C 48.0 °F /  8.9 °C 30.1in /  1019.2hPa North 8mph /  12.9km/h 9mph /  14.5km/h 77% 0.000in /  0mm 7.00 W/m2
17:39 55.0 °F /  12.8 °C 48.0 °F /  8.9 °C 30.1in /  1019.2hPa NNE 5mph /  8km/h 8mph /  12.9km/h 78% 0.000in /  0mm 5.00 W/m2
17:44 55.0 °F /  12.8 °C 48.0 °F /  8.9 °C 30.1in /  1019.2hPa NNE 11mph /  17.7km/h 11mph /  17.7km/h 78% 0.000in /  0mm 0.00 W/m2
17:49 55.0 °F /  12.8 °C 48.0 °F /  8.9 °C 30.1in /  1019.2hPa NE 5mph /  8km/h 10mph /  16.1km/h 78% 0.000in /  0mm 0.00 W/m2
17:54 55.0 °F /  12.8 °C 48.0 °F /  8.9 °C 30.1in /  1019.2hPa NE 9mph /  14.5km/h 10mph /  16.1km/h 78% 0.000in /  0mm 0.00 W/m2
17:59 55.0 °F /  12.8 °C 48.0 °F /  8.9 °C 30.1in /  1019.2hPa NNE 8mph /  12.9km/h 9mph /  14.5km/h 78% 0.000in /  0mm 0.00 W/m2
18:04 55.0 °F /  12.8 °C 48.0 °F /  8.9 °C 30.1in /  1019.2hPa NNE 8mph /  12.9km/h 9mph /  14.5km/h 78% 0.000in /  0mm 0.00 W/m2
18:09 55.0 °F /  12.8 °C 48.0 °F /  8.9 °C 30.1in /  1019.2hPa NNE 8mph /  12.9km/h 9mph /  14.5km/h 79% 0.000in /  0mm 0.00 W/m2
18:14 55.0 °F /  12.8 °C 48.0 °F /  8.9 °C 30.1in /  1019.2hPa North 10mph /  16.1km/h 12mph /  19.3km/h 79% 0.000in /  0mm 0.00 W/m2
18:19 55.0 °F /  12.8 °C 48.0 °F /  8.9 °C 30.1in /  1019.2hPa NNE 11mph /  17.7km/h 12mph /  19.3km/h 79% 0.000in /  0mm 0.00 W/m2
18:24 55.0 °F /  12.8 °C 48.0 °F /  8.9 °C 30.1in /  1019.2hPa NNE 11mph /  17.7km/h 11mph /  17.7km/h 79% 0.000in /  0mm 0.00 W/m2
18:29 54.0 °F /  12.2 °C 48.0 °F /  8.9 °C 30.2in /  1022.6hPa NNE 14mph /  22.5km/h 14mph /  22.5km/h 79% 0.000in /  0mm 0.00 W/m2
18:34 54.0 °F /  12.2 °C 48.0 °F /  8.9 °C 30.1in /  1019.2hPa NNE 7mph /  11.3km/h 8mph /  12.9km/h 79% 0.000in /  0mm 0.00 W/m2
18:39 54.0 °F /  12.2 °C 48.0 °F /  8.9 °C 30.1in /  1019.2hPa NE 8mph /  12.9km/h 9mph /  14.5km/h 79% 0.000in /  0mm 0.00 W/m2
18:44 54.0 °F /  12.2 °C 48.0 °F /  8.9 °C 30.2in /  1022.6hPa NNE 12mph /  19.3km/h 12mph /  19.3km/h 79% 0.000in /  0mm 0.00 W/m2
18:49 54.0 °F /  12.2 °C 48.0 °F /  8.9 °C 30.2in /  1022.6hPa NNE 8mph /  12.9km/h 12mph /  19.3km/h 79% 0.000in /  0mm 0.00 W/m2
18:54 54.0 °F /  12.2 °C 48.0 °F /  8.9 °C 30.2in /  1022.6hPa NNE 10mph /  16.1km/h 11mph /  17.7km/h 79% 0.000in /  0mm 0.00 W/m2
18:59 54.0 °F /  12.2 °C 48.0 °F /  8.9 °C 30.2in /  1022.6hPa NNE 5mph /  8km/h 10mph /  16.1km/h 79% 0.000in /  0mm 0.00 W/m2
19:04 54.0 °F /  12.2 °C 48.0 °F /  8.9 °C 30.2in /  1022.6hPa NNE 9mph /  14.5km/h 9mph /  14.5km/h 79% 0.000in /  0mm 0.00 W/m2
19:09 54.0 °F /  12.2 °C 48.0 °F /  8.9 °C 30.2in /  1022.6hPa NE 13mph /  20.9km/h 13mph /  20.9km/h 79% 0.000in /  0mm 0.00 W/m2
19:14 54.0 °F /  12.2 °C 48.0 °F /  8.9 °C 30.2in /  1022.6hPa NNE 7mph /  11.3km/h 11mph /  17.7km/h 79% 0.000in /  0mm 0.00 W/m2
19:19 54.0 °F /  12.2 °C 48.0 °F /  8.9 °C 30.2in /  1022.6hPa NE 7mph /  11.3km/h 7mph /  11.3km/h 79% 0.000in /  0mm 0.00 W/m2
19:24 54.0 °F /  12.2 °C 47.0 °F /  8.3 °C 30.2in /  1022.6hPa NE 5mph /  8km/h 5mph /  8km/h 79% 0.000in /  0mm 0.00 W/m2
19:29 54.0 °F /  12.2 °C 47.0 °F /  8.3 °C 30.2in /  1022.6hPa ENE 8mph /  12.9km/h 8mph /  12.9km/h 79% 0.000in /  0mm 0.00 W/m2
19:34 53.0 °F /  11.7 °C 47.0 °F /  8.3 °C 30.2in /  1022.6hPa NE 5mph /  8km/h 6mph /  9.7km/h 79% 0.000in /  0mm 0.00 W/m2
19:39 53.0 °F /  11.7 °C 47.0 °F /  8.3 °C 30.2in /  1022.6hPa NE 4mph /  6.4km/h 6mph /  9.7km/h 79% 0.000in /  0mm 0.00 W/m2
19:44 53.0 °F /  11.7 °C 47.0 °F /  8.3 °C 30.2in /  1022.6hPa NE 6mph /  9.7km/h 6mph /  9.7km/h 79% 0.000in /  0mm 0.00 W/m2
19:49 53.0 °F /  11.7 °C 47.0 °F /  8.3 °C 30.2in /  1022.6hPa NE 4mph /  6.4km/h 6mph /  9.7km/h 78% 0.000in /  0mm 0.00 W/m2
19:54 53.0 °F /  11.7 °C 47.0 °F /  8.3 °C 30.2in /  1022.6hPa ENE 3mph /  4.8km/h 3mph /  4.8km/h 78% 0.000in /  0mm 0.00 W/m2
19:59 53.0 °F /  11.7 °C 47.0 °F /  8.3 °C 30.2in /  1022.6hPa NE 6mph /  9.7km/h 6mph /  9.7km/h 78% 0.000in /  0mm 0.00 W/m2
20:04 53.0 °F /  11.7 °C 47.0 °F /  8.3 °C 30.2in /  1022.6hPa NE 6mph /  9.7km/h 6mph /  9.7km/h 78% 0.000in /  0mm 0.00 W/m2
20:09 53.0 °F /  11.7 °C 47.0 °F /  8.3 °C 30.2in /  1022.6hPa NE 8mph /  12.9km/h 9mph /  14.5km/h 78% 0.000in /  0mm 0.00 W/m2
20:14 53.0 °F /  11.7 °C 47.0 °F /  8.3 °C 30.2in /  1022.6hPa NE 9mph /  14.5km/h 9mph /  14.5km/h 78% 0.000in /  0mm 0.00 W/m2
20:19 53.0 °F /  11.7 °C 47.0 °F /  8.3 °C 30.2in /  1022.6hPa NE 7mph /  11.3km/h 7mph /  11.3km/h 78% 0.000in /  0mm 0.00 W/m2
20:24 53.0 °F /  11.7 °C 47.0 °F /  8.3 °C 30.2in /  1022.6hPa NE 5mph /  8km/h 7mph /  11.3km/h 78% 0.000in /  0mm 0.00 W/m2
20:29 53.0 °F /  11.7 °C 47.0 °F /  8.3 °C 30.2in /  1022.6hPa NE 9mph /  14.5km/h 10mph /  16.1km/h 78% 0.000in /  0mm 0.00 W/m2
20:34 53.0 °F /  11.7 °C 47.0 °F /  8.3 °C 30.2in /  1022.6hPa NNE 10mph /  16.1km/h 10mph /  16.1km/h 78% 0.000in /  0mm 0.00 W/m2
20:39 53.0 °F /  11.7 °C 47.0 °F /  8.3 °C 30.2in /  1022.6hPa NNE 4mph /  6.4km/h 4mph /  6.4km/h 78% 0.000in /  0mm 0.00 W/m2
20:44 53.0 °F /  11.7 °C 47.0 °F /  8.3 °C 30.2in /  1022.6hPa NNE 6mph /  9.7km/h 6mph /  9.7km/h 78% 0.000in /  0mm 0.00 W/m2
20:49 53.0 °F /  11.7 °C 47.0 °F /  8.3 °C 30.2in /  1022.6hPa NE 4mph /  6.4km/h 5mph /  8km/h 78% 0.000in /  0mm 0.00 W/m2
20:54 53.0 °F /  11.7 °C 47.0 °F /  8.3 °C 30.2in /  1022.6hPa NE 4mph /  6.4km/h 5mph /  8km/h 78% 0.000in /  0mm 0.00 W/m2
20:59 53.0 °F /  11.7 °C 47.0 °F /  8.3 °C 30.2in /  1022.6hPa NNE 8mph /  12.9km/h 8mph /  12.9km/h 78% 0.000in /  0mm 0.00 W/m2
21:04 53.0 °F /  11.7 °C 47.0 °F /  8.3 °C 30.2in /  1022.6hPa NNE 6mph /  9.7km/h 6mph /  9.7km/h 78% 0.000in /  0mm 0.00 W/m2
21:09 53.0 °F /  11.7 °C 47.0 °F /  8.3 °C 30.2in /  1022.6hPa NNE 4mph /  6.4km/h 5mph /  8km/h 79% 0.000in /  0mm 0.00 W/m2
21:14 53.0 °F /  11.7 °C 47.0 °F /  8.3 °C 30.2in /  1022.6hPa NNE 5mph /  8km/h 5mph /  8km/h 79% 0.000in /  0mm 0.00 W/m2
21:19 53.0 °F /  11.7 °C 47.0 °F /  8.3 °C 30.2in /  1022.6hPa NNE 4mph /  6.4km/h 5mph /  8km/h 79% 0.000in /  0mm 0.00 W/m2
21:24 53.0 °F /  11.7 °C 47.0 °F /  8.3 °C 30.2in /  1022.6hPa NNE 4mph /  6.4km/h 4mph /  6.4km/h 79% 0.000in /  0mm 0.00 W/m2
21:29 53.0 °F /  11.7 °C 47.0 °F /  8.3 °C 30.2in /  1022.6hPa NNE 3mph /  4.8km/h 4mph /  6.4km/h 79% 0.000in /  0mm 0.00 W/m2
21:34 53.0 °F /  11.7 °C 46.0 °F /  7.8 °C 30.2in /  1022.6hPa NNE 3mph /  4.8km/h 4mph /  6.4km/h 79% 0.000in /  0mm 0.00 W/m2
21:39 53.0 °F /  11.7 °C 46.0 °F /  7.8 °C 30.2in /  1022.6hPa NNE 3mph /  4.8km/h 4mph /  6.4km/h 79% 0.000in /  0mm 0.00 W/m2
21:44 52.0 °F /  11.1 °C 46.0 °F /  7.8 °C 30.2in /  1022.6hPa NNE 3mph /  4.8km/h 3mph /  4.8km/h 79% 0.000in /  0mm 0.00 W/m2
21:49 52.0 °F /  11.1 °C 46.0 °F /  7.8 °C 30.2in /  1022.6hPa NNE 3mph /  4.8km/h 3mph /  4.8km/h 80% 0.000in /  0mm 0.00 W/m2
21:54 52.0 °F /  11.1 °C 46.0 °F /  7.8 °C 30.2in /  1022.6hPa NNE 3mph /  4.8km/h 4mph /  6.4km/h 80% 0.000in /  0mm 0.00 W/m2
21:59 52.0 °F /  11.1 °C 46.0 °F /  7.8 °C 30.2in /  1022.6hPa NNE 3mph /  4.8km/h 3mph /  4.8km/h 80% 0.000in /  0mm 0.00 W/m2
22:04 51.0 °F /  10.6 °C 46.0 °F /  7.8 °C 30.2in /  1022.6hPa NNE 2mph /  3.2km/h 3mph /  4.8km/h 80% 0.000in /  0mm 0.00 W/m2
22:09 51.0 °F /  10.6 °C 45.0 °F /  7.2 °C 30.2in /  1022.6hPa NNE 2mph /  3.2km/h 2mph /  3.2km/h 80% 0.000in /  0mm 0.00 W/m2
22:14 51.0 °F /  10.6 °C 45.0 °F /  7.2 °C 30.2in /  1022.6hPa NNE 1mph /  1.6km/h 2mph /  3.2km/h 80% 0.000in /  0mm 0.00 W/m2
22:19 51.0 °F /  10.6 °C 45.0 °F /  7.2 °C 30.2in /  1022.6hPa NNE 2mph /  3.2km/h 2mph /  3.2km/h 81% 0.000in /  0mm 0.00 W/m2
22:24 51.0 °F /  10.6 °C 45.0 °F /  7.2 °C 30.2in /  1022.6hPa NNE 2mph /  3.2km/h 2mph /  3.2km/h 81% 0.000in /  0mm 0.00 W/m2
22:29 50.0 °F /  10 °C 45.0 °F /  7.2 °C 30.3in /  1026hPa Calm     81% 0.000in /  0mm 0.00 W/m2
22:34 50.0 °F /  10 °C 44.0 °F /  6.7 °C 30.3in /  1026hPa NNE 1mph /  1.6km/h 1mph /  1.6km/h 81% 0.000in /  0mm 0.00 W/m2
22:39 50.0 °F /  10 °C 44.0 °F /  6.7 °C 30.3in /  1026hPa NNE 2mph /  3.2km/h 2mph /  3.2km/h 81% 0.000in /  0mm 0.00 W/m2
22:44 50.0 °F /  10 °C 44.0 °F /  6.7 °C 30.3in /  1026hPa NNE 1mph /  1.6km/h 2mph /  3.2km/h 81% 0.000in /  0mm 0.00 W/m2
22:49 50.0 °F /  10 °C 44.0 °F /  6.7 °C 30.3in /  1026hPa NNE 2mph /  3.2km/h 2mph /  3.2km/h 81% 0.000in /  0mm 0.00 W/m2
22:54 49.0 °F /  9.4 °C 44.0 °F /  6.7 °C 30.3in /  1026hPa NNE 3mph /  4.8km/h 3mph /  4.8km/h 81% 0.000in /  0mm 0.00 W/m2
22:59 49.0 °F /  9.4 °C 44.0 °F /  6.7 °C 30.3in /  1026hPa NNE 2mph /  3.2km/h 3mph /  4.8km/h 82% 0.000in /  0mm 0.00 W/m2
23:04 49.0 °F /  9.4 °C 44.0 °F /  6.7 °C 30.3in /  1026hPa NNE 2mph /  3.2km/h 3mph /  4.8km/h 82% 0.000in /  0mm 0.00 W/m2
23:09 49.0 °F /  9.4 °C 44.0 °F /  6.7 °C 30.3in /  1026hPa NNE 2mph /  3.2km/h 3mph /  4.8km/h 83% 0.000in /  0mm 0.00 W/m2
23:14 48.0 °F /  8.9 °C 44.0 °F /  6.7 °C 30.3in /  1026hPa NE 3mph /  4.8km/h 3mph /  4.8km/h 83% 0.000in /  0mm 0.00 W/m2
23:19 48.0 °F /  8.9 °C 43.0 °F /  6.1 °C 30.3in /  1026hPa NNE 4mph /  6.4km/h 5mph /  8km/h 83% 0.000in /  0mm 0.00 W/m2
23:24 48.0 °F /  8.9 °C 43.0 °F /  6.1 °C 30.3in /  1026hPa NNE 5mph /  8km/h 5mph /  8km/h 84% 0.000in /  0mm 0.00 W/m2
23:29 48.0 °F /  8.9 °C 43.0 °F /  6.1 °C 30.3in /  1026hPa NNE 3mph /  4.8km/h 3mph /  4.8km/h 84% 0.000in /  0mm 0.00 W/m2
23:34 48.0 °F /  8.9 °C 43.0 °F /  6.1 °C 30.3in /  1026hPa NNE 4mph /  6.4km/h 4mph /  6.4km/h 84% 0.000in /  0mm 0.00 W/m2
23:39 48.0 °F /  8.9 °C 44.0 °F /  6.7 °C 30.3in /  1026hPa NE 2mph /  3.2km/h 3mph /  4.8km/h 85% 0.000in /  0mm 0.00 W/m2
23:44 48.0 °F /  8.9 °C 43.0 °F /  6.1 °C 30.3in /  1026hPa NE 4mph /  6.4km/h 4mph /  6.4km/h 85% 0.000in /  0mm 0.00 W/m2
23:49 48.0 °F /  8.9 °C 43.0 °F /  6.1 °C 30.3in /  1026hPa NE 3mph /  4.8km/h 4mph /  6.4km/h 85% 0.000in /  0mm 0.00 W/m2
23:54 48.0 °F /  8.9 °C 43.0 °F /  6.1 °C 30.3in /  1026hPa NE 3mph /  4.8km/h 3mph /  4.8km/h 85% 0.000in /  0mm 0.00 W/m2
23:59 48.0 °F /  8.9 °C 43.0 °F /  6.1 °C 30.3in /  1026hPa NE 3mph /  4.8km/h 3mph /  4.8km/h 85% 0.000in /  0mm 0.00 W/m2
Villages of Bridgestone, Spring, TX USA
Compliments of Weather Underground - 4 mb